sensor_id;sensor_type;location;lat;lon;timestamp;P1;durP1;ratioP1;P2;durP2;ratioP2
81223;SDS011;70698;44.402;18.522;2023-07-20T00:01:11;13.23;;;10.27;;
81223;SDS011;70698;44.402;18.522;2023-07-20T00:03:37;16.05;;;9.88;;
81223;SDS011;70698;44.402;18.522;2023-07-20T00:06:03;11.65;;;9.45;;
81223;SDS011;70698;44.402;18.522;2023-07-20T00:08:29;14.90;;;9.70;;
81223;SDS011;70698;44.402;18.522;2023-07-20T00:10:55;12.95;;;9.57;;
81223;SDS011;70698;44.402;18.522;2023-07-20T00:13:20;16.13;;;9.38;;
81223;SDS011;70698;44.402;18.522;2023-07-20T00:15:46;11.70;;;9.32;;
81223;SDS011;70698;44.402;18.522;2023-07-20T00:18:12;20.77;;;12.70;;
81223;SDS011;70698;44.402;18.522;2023-07-20T00:20:38;18.95;;;11.27;;
81223;SDS011;70698;44.402;18.522;2023-07-20T00:23:03;16.42;;;11.68;;
81223;SDS011;70698;44.402;18.522;2023-07-20T00:25:31;15.27;;;10.98;;
81223;SDS011;70698;44.402;18.522;2023-07-20T00:27:58;14.40;;;10.23;;
81223;SDS011;70698;44.402;18.522;2023-07-20T00:30:24;12.98;;;10.50;;
81223;SDS011;70698;44.402;18.522;2023-07-20T00:32:50;13.88;;;10.32;;
81223;SDS011;70698;44.402;18.522;2023-07-20T00:35:15;14.05;;;9.85;;
81223;SDS011;70698;44.402;18.522;2023-07-20T00:37:41;14.20;;;10.27;;
81223;SDS011;70698;44.402;18.522;2023-07-20T00:40:07;11.45;;;10.25;;
81223;SDS011;70698;44.402;18.522;2023-07-20T00:42:33;14.90;;;11.05;;
81223;SDS011;70698;44.402;18.522;2023-07-20T00:44:59;12.25;;;10.88;;
81223;SDS011;70698;44.402;18.522;2023-07-20T00:47:25;15.30;;;10.70;;
81223;SDS011;70698;44.402;18.522;2023-07-20T00:49:52;15.43;;;10.73;;
81223;SDS011;70698;44.402;18.522;2023-07-20T00:52:19;10.02;;;9.00;;
81223;SDS011;70698;44.402;18.522;2023-07-20T00:54:47;12.95;;;9.90;;
81223;SDS011;70698;44.402;18.522;2023-07-20T00:57:14;13.40;;;10.35;;
81223;SDS011;70698;44.402;18.522;2023-07-20T00:59:43;13.35;;;10.20;;
81223;SDS011;70698;44.402;18.522;2023-07-20T01:02:08;13.38;;;10.15;;
81223;SDS011;70698;44.402;18.522;2023-07-20T01:04:34;14.68;;;10.45;;
81223;SDS011;70698;44.402;18.522;2023-07-20T01:07:03;12.45;;;10.93;;
81223;SDS011;70698;44.402;18.522;2023-07-20T01:09:42;13.38;;;11.02;;
81223;SDS011;70698;44.402;18.522;2023-07-20T01:12:18;15.23;;;11.75;;
81223;SDS011;70698;44.402;18.522;2023-07-20T01:14:51;16.02;;;12.30;;
81223;SDS011;70698;44.402;18.522;2023-07-20T01:17:17;15.98;;;11.70;;
81223;SDS011;70698;44.402;18.522;2023-07-20T01:19:43;18.80;;;12.35;;
81223;SDS011;70698;44.402;18.522;2023-07-20T01:33:01;12.70;;;10.80;;
81223;SDS011;70698;44.402;18.522;2023-07-20T01:35:29;15.65;;;10.10;;
81223;SDS011;70698;44.402;18.522;2023-07-20T01:37:56;12.82;;;11.40;;
81223;SDS011;70698;44.402;18.522;2023-07-20T01:40:23;14.60;;;11.48;;
81223;SDS011;70698;44.402;18.522;2023-07-20T01:42:51;37.60;;;32.60;;
81223;SDS011;70698;44.402;18.522;2023-07-20T01:45:18;21.10;;;17.63;;
81223;SDS011;70698;44.402;18.522;2023-07-20T01:47:44;56.83;;;49.30;;
81223;SDS011;70698;44.402;18.522;2023-07-20T01:50:10;40.65;;;35.78;;
81223;SDS011;70698;44.402;18.522;2023-07-20T01:52:35;18.88;;;13.70;;
81223;SDS011;70698;44.402;18.522;2023-07-20T01:55:02;15.32;;;12.75;;
81223;SDS011;70698;44.402;18.522;2023-07-20T01:59:56;19.73;;;15.57;;
81223;SDS011;70698;44.402;18.522;2023-07-20T02:02:23;15.32;;;13.82;;
81223;SDS011;70698;44.402;18.522;2023-07-20T02:04:52;11.65;;;8.65;;
81223;SDS011;70698;44.402;18.522;2023-07-20T02:07:17;11.80;;;7.07;;
81223;SDS011;70698;44.402;18.522;2023-07-20T02:09:43;12.48;;;8.20;;
81223;SDS011;70698;44.402;18.522;2023-07-20T02:12:09;13.60;;;6.70;;
81223;SDS011;70698;44.402;18.522;2023-07-20T02:14:35;10.98;;;6.32;;
81223;SDS011;70698;44.402;18.522;2023-07-20T02:17:00;10.75;;;5.82;;
81223;SDS011;70698;44.402;18.522;2023-07-20T02:19:27;11.02;;;6.93;;
81223;SDS011;70698;44.402;18.522;2023-07-20T02:21:56;9.55;;;6.30;;
81223;SDS011;70698;44.402;18.522;2023-07-20T02:24:22;10.38;;;6.28;;
81223;SDS011;70698;44.402;18.522;2023-07-20T02:26:47;11.65;;;5.60;;
81223;SDS011;70698;44.402;18.522;2023-07-20T02:29:13;14.40;;;6.18;;
81223;SDS011;70698;44.402;18.522;2023-07-20T02:31:39;7.80;;;3.97;;
81223;SDS011;70698;44.402;18.522;2023-07-20T02:34:05;8.57;;;4.97;;
81223;SDS011;70698;44.402;18.522;2023-07-20T02:36:31;7.32;;;4.10;;
81223;SDS011;70698;44.402;18.522;2023-07-20T02:39:00;6.25;;;3.00;;
81223;SDS011;70698;44.402;18.522;2023-07-20T02:41:30;4.57;;;2.38;;
81223;SDS011;70698;44.402;18.522;2023-07-20T02:43:56;8.27;;;3.00;;
81223;SDS011;70698;44.402;18.522;2023-07-20T02:46:22;5.38;;;2.25;;
81223;SDS011;70698;44.402;18.522;2023-07-20T02:48:47;7.10;;;2.20;;
81223;SDS011;70698;44.402;18.522;2023-07-20T02:51:13;7.47;;;2.95;;
81223;SDS011;70698;44.402;18.522;2023-07-20T02:53:38;7.40;;;2.72;;
81223;SDS011;70698;44.402;18.522;2023-07-20T02:56:04;6.07;;;3.00;;
81223;SDS011;70698;44.402;18.522;2023-07-20T02:58:30;5.97;;;3.17;;
81223;SDS011;70698;44.402;18.522;2023-07-20T03:00:55;3.38;;;2.50;;
81223;SDS011;70698;44.402;18.522;2023-07-20T03:03:22;6.78;;;2.75;;
81223;SDS011;70698;44.402;18.522;2023-07-20T03:05:47;8.70;;;2.20;;
81223;SDS011;70698;44.402;18.522;2023-07-20T03:08:19;7.38;;;2.30;;
81223;SDS011;70698;44.402;18.522;2023-07-20T03:10:45;6.15;;;2.78;;
81223;SDS011;70698;44.402;18.522;2023-07-20T03:13:11;11.02;;;2.30;;
81223;SDS011;70698;44.402;18.522;2023-07-20T03:15:38;5.47;;;2.30;;
81223;SDS011;70698;44.402;18.522;2023-07-20T03:18:04;5.45;;;2.00;;
81223;SDS011;70698;44.402;18.522;2023-07-20T03:20:30;6.88;;;2.50;;
81223;SDS011;70698;44.402;18.522;2023-07-20T03:22:56;5.22;;;2.17;;
81223;SDS011;70698;44.402;18.522;2023-07-20T03:25:22;7.03;;;2.70;;
81223;SDS011;70698;44.402;18.522;2023-07-20T03:27:48;8.57;;;2.65;;
81223;SDS011;70698;44.402;18.522;2023-07-20T03:30:14;7.05;;;2.40;;
81223;SDS011;70698;44.402;18.522;2023-07-20T03:32:39;5.72;;;2.42;;
81223;SDS011;70698;44.402;18.522;2023-07-20T03:35:05;4.88;;;2.08;;
81223;SDS011;70698;44.402;18.522;2023-07-20T03:37:31;6.45;;;2.40;;
81223;SDS011;70698;44.402;18.522;2023-07-20T03:39:57;4.35;;;2.22;;
81223;SDS011;70698;44.402;18.522;2023-07-20T03:42:23;4.28;;;2.50;;
81223;SDS011;70698;44.402;18.522;2023-07-20T03:44:49;6.45;;;2.20;;
81223;SDS011;70698;44.402;18.522;2023-07-20T03:47:15;5.32;;;2.03;;
81223;SDS011;70698;44.402;18.522;2023-07-20T03:49:41;6.32;;;3.13;;
81223;SDS011;70698;44.402;18.522;2023-07-20T03:52:07;7.10;;;2.50;;
81223;SDS011;70698;44.402;18.522;2023-07-20T03:54:33;6.82;;;2.67;;
81223;SDS011;70698;44.402;18.522;2023-07-20T03:56:58;5.07;;;2.78;;
81223;SDS011;70698;44.402;18.522;2023-07-20T03:59:24;7.05;;;3.13;;
81223;SDS011;70698;44.402;18.522;2023-07-20T04:01:50;7.38;;;2.97;;
81223;SDS011;70698;44.402;18.522;2023-07-20T04:04:15;7.47;;;2.95;;
81223;SDS011;70698;44.402;18.522;2023-07-20T04:06:41;6.07;;;2.30;;
81223;SDS011;70698;44.402;18.522;2023-07-20T04:09:09;5.65;;;2.38;;
81223;SDS011;70698;44.402;18.522;2023-07-20T04:11:36;6.28;;;2.47;;
81223;SDS011;70698;44.402;18.522;2023-07-20T04:14:02;7.97;;;2.63;;
81223;SDS011;70698;44.402;18.522;2023-07-20T04:16:27;6.88;;;2.80;;
81223;SDS011;70698;44.402;18.522;2023-07-20T04:18:56;7.55;;;2.40;;
81223;SDS011;70698;44.402;18.522;2023-07-20T04:21:22;4.15;;;2.50;;
81223;SDS011;70698;44.402;18.522;2023-07-20T04:23:48;4.80;;;2.47;;
81223;SDS011;70698;44.402;18.522;2023-07-20T04:26:14;6.53;;;2.85;;
81223;SDS011;70698;44.402;18.522;2023-07-20T04:28:43;6.50;;;2.80;;
81223;SDS011;70698;44.402;18.522;2023-07-20T04:31:13;5.18;;;3.00;;
81223;SDS011;70698;44.402;18.522;2023-07-20T04:33:39;7.28;;;2.92;;
81223;SDS011;70698;44.402;18.522;2023-07-20T04:36:05;7.63;;;2.38;;
81223;SDS011;70698;44.402;18.522;2023-07-20T04:38:34;5.90;;;2.47;;
81223;SDS011;70698;44.402;18.522;2023-07-20T04:41:09;6.85;;;2.33;;
81223;SDS011;70698;44.402;18.522;2023-07-20T04:43:42;6.28;;;2.30;;
81223;SDS011;70698;44.402;18.522;2023-07-20T04:46:10;4.88;;;2.03;;
81223;SDS011;70698;44.402;18.522;2023-07-20T04:48:37;6.00;;;2.17;;
81223;SDS011;70698;44.402;18.522;2023-07-20T04:51:02;6.25;;;2.10;;
81223;SDS011;70698;44.402;18.522;2023-07-20T04:53:29;8.07;;;2.83;;
81223;SDS011;70698;44.402;18.522;2023-07-20T04:55:55;4.13;;;2.30;;
81223;SDS011;70698;44.402;18.522;2023-07-20T04:58:23;6.32;;;2.30;;
81223;SDS011;70698;44.402;18.522;2023-07-20T05:00:50;5.38;;;2.60;;
81223;SDS011;70698;44.402;18.522;2023-07-20T05:03:17;9.30;;;4.18;;
81223;SDS011;70698;44.402;18.522;2023-07-20T05:05:43;8.15;;;3.30;;
81223;SDS011;70698;44.402;18.522;2023-07-20T05:08:10;9.50;;;2.80;;
81223;SDS011;70698;44.402;18.522;2023-07-20T05:10:36;7.80;;;2.75;;
81223;SDS011;70698;44.402;18.522;2023-07-20T05:13:01;7.50;;;2.78;;
81223;SDS011;70698;44.402;18.522;2023-07-20T05:15:27;6.05;;;2.63;;
81223;SDS011;70698;44.402;18.522;2023-07-20T05:17:54;7.50;;;2.85;;
81223;SDS011;70698;44.402;18.522;2023-07-20T05:20:19;7.32;;;2.60;;
81223;SDS011;70698;44.402;18.522;2023-07-20T05:22:45;4.40;;;2.25;;
81223;SDS011;70698;44.402;18.522;2023-07-20T05:25:11;7.38;;;2.58;;
81223;SDS011;70698;44.402;18.522;2023-07-20T05:27:37;6.47;;;2.75;;
81223;SDS011;70698;44.402;18.522;2023-07-20T05:30:03;7.93;;;2.95;;
81223;SDS011;70698;44.402;18.522;2023-07-20T05:32:30;7.63;;;2.50;;
81223;SDS011;70698;44.402;18.522;2023-07-20T05:34:56;5.75;;;2.60;;
81223;SDS011;70698;44.402;18.522;2023-07-20T05:37:21;7.18;;;2.55;;
81223;SDS011;70698;44.402;18.522;2023-07-20T05:39:47;6.50;;;2.67;;
81223;SDS011;70698;44.402;18.522;2023-07-20T05:42:13;5.88;;;2.35;;
81223;SDS011;70698;44.402;18.522;2023-07-20T05:44:39;3.72;;;2.25;;
81223;SDS011;70698;44.402;18.522;2023-07-20T05:47:06;8.63;;;2.90;;
81223;SDS011;70698;44.402;18.522;2023-07-20T05:49:32;9.48;;;2.70;;
81223;SDS011;70698;44.402;18.522;2023-07-20T05:51:57;4.03;;;2.30;;
81223;SDS011;70698;44.402;18.522;2023-07-20T05:54:23;8.38;;;2.63;;
81223;SDS011;70698;44.402;18.522;2023-07-20T05:56:50;7.43;;;2.70;;
81223;SDS011;70698;44.402;18.522;2023-07-20T05:59:16;6.65;;;3.03;;
81223;SDS011;70698;44.402;18.522;2023-07-20T06:01:42;8.30;;;3.15;;
81223;SDS011;70698;44.402;18.522;2023-07-20T06:04:09;9.03;;;2.87;;
81223;SDS011;70698;44.402;18.522;2023-07-20T06:06:34;6.82;;;2.42;;
81223;SDS011;70698;44.402;18.522;2023-07-20T06:09:00;5.32;;;2.55;;
81223;SDS011;70698;44.402;18.522;2023-07-20T06:11:29;5.63;;;2.42;;
81223;SDS011;70698;44.402;18.522;2023-07-20T06:13:56;7.55;;;2.70;;
81223;SDS011;70698;44.402;18.522;2023-07-20T06:16:22;8.38;;;2.55;;
81223;SDS011;70698;44.402;18.522;2023-07-20T06:18:47;6.50;;;2.50;;
81223;SDS011;70698;44.402;18.522;2023-07-20T06:21:13;8.07;;;2.88;;
81223;SDS011;70698;44.402;18.522;2023-07-20T06:23:39;7.15;;;2.70;;
81223;SDS011;70698;44.402;18.522;2023-07-20T06:26:06;5.32;;;2.50;;
81223;SDS011;70698;44.402;18.522;2023-07-20T06:28:32;6.75;;;2.58;;
81223;SDS011;70698;44.402;18.522;2023-07-20T06:30:59;8.40;;;2.70;;
81223;SDS011;70698;44.402;18.522;2023-07-20T06:33:28;9.48;;;3.20;;
81223;SDS011;70698;44.402;18.522;2023-07-20T06:35:53;6.10;;;2.90;;
81223;SDS011;70698;44.402;18.522;2023-07-20T06:38:19;4.80;;;2.70;;
81223;SDS011;70698;44.402;18.522;2023-07-20T06:40:47;5.03;;;2.80;;
81223;SDS011;70698;44.402;18.522;2023-07-20T06:43:13;8.60;;;2.85;;
81223;SDS011;70698;44.402;18.522;2023-07-20T06:45:39;7.80;;;2.65;;
81223;SDS011;70698;44.402;18.522;2023-07-20T06:48:04;6.88;;;2.92;;
81223;SDS011;70698;44.402;18.522;2023-07-20T06:50:30;9.43;;;3.17;;
81223;SDS011;70698;44.402;18.522;2023-07-20T06:52:55;5.53;;;2.95;;
81223;SDS011;70698;44.402;18.522;2023-07-20T06:55:21;6.18;;;4.13;;
81223;SDS011;70698;44.402;18.522;2023-07-20T06:57:47;7.03;;;3.78;;
81223;SDS011;70698;44.402;18.522;2023-07-20T07:00:12;7.60;;;3.08;;
81223;SDS011;70698;44.402;18.522;2023-07-20T07:02:38;6.47;;;2.92;;
81223;SDS011;70698;44.402;18.522;2023-07-20T07:05:04;9.75;;;3.47;;
81223;SDS011;70698;44.402;18.522;2023-07-20T07:07:30;8.20;;;3.70;;
81223;SDS011;70698;44.402;18.522;2023-07-20T07:09:56;8.23;;;4.63;;
81223;SDS011;70698;44.402;18.522;2023-07-20T07:12:22;7.00;;;4.32;;
81223;SDS011;70698;44.402;18.522;2023-07-20T07:14:47;8.90;;;3.55;;
81223;SDS011;70698;44.402;18.522;2023-07-20T07:17:13;7.22;;;3.90;;
81223;SDS011;70698;44.402;18.522;2023-07-20T07:19:39;7.68;;;4.07;;
81223;SDS011;70698;44.402;18.522;2023-07-20T07:22:05;7.53;;;4.80;;
81223;SDS011;70698;44.402;18.522;2023-07-20T07:24:31;8.15;;;4.90;;
81223;SDS011;70698;44.402;18.522;2023-07-20T07:26:59;8.23;;;5.45;;
81223;SDS011;70698;44.402;18.522;2023-07-20T07:29:26;10.57;;;5.82;;
81223;SDS011;70698;44.402;18.522;2023-07-20T07:31:52;12.27;;;5.90;;
81223;SDS011;70698;44.402;18.522;2023-07-20T07:34:17;8.90;;;4.65;;
81223;SDS011;70698;44.402;18.522;2023-07-20T07:36:43;9.05;;;4.80;;
81223;SDS011;70698;44.402;18.522;2023-07-20T07:39:09;9.32;;;4.57;;
81223;SDS011;70698;44.402;18.522;2023-07-20T07:41:35;8.75;;;4.25;;
81223;SDS011;70698;44.402;18.522;2023-07-20T07:44:01;10.25;;;4.47;;
81223;SDS011;70698;44.402;18.522;2023-07-20T07:46:26;6.22;;;3.50;;
81223;SDS011;70698;44.402;18.522;2023-07-20T07:48:52;7.55;;;3.25;;
81223;SDS011;70698;44.402;18.522;2023-07-20T07:51:18;7.03;;;3.70;;
81223;SDS011;70698;44.402;18.522;2023-07-20T07:53:45;7.57;;;3.88;;
81223;SDS011;70698;44.402;18.522;2023-07-20T07:56:11;8.88;;;4.13;;
81223;SDS011;70698;44.402;18.522;2023-07-20T07:58:37;7.53;;;3.63;;
81223;SDS011;70698;44.402;18.522;2023-07-20T08:01:03;11.13;;;4.15;;
81223;SDS011;70698;44.402;18.522;2023-07-20T08:03:29;5.80;;;3.10;;
81223;SDS011;70698;44.402;18.522;2023-07-20T08:05:55;5.70;;;3.17;;
81223;SDS011;70698;44.402;18.522;2023-07-20T08:08:21;5.30;;;2.97;;
81223;SDS011;70698;44.402;18.522;2023-07-20T08:10:47;7.05;;;3.00;;
81223;SDS011;70698;44.402;18.522;2023-07-20T08:13:13;6.25;;;2.67;;
81223;SDS011;70698;44.402;18.522;2023-07-20T08:15:38;6.72;;;2.90;;
81223;SDS011;70698;44.402;18.522;2023-07-20T08:18:04;6.03;;;2.55;;
81223;SDS011;70698;44.402;18.522;2023-07-20T08:20:31;4.97;;;2.67;;
81223;SDS011;70698;44.402;18.522;2023-07-20T08:22:57;7.85;;;3.33;;
81223;SDS011;70698;44.402;18.522;2023-07-20T08:25:24;5.65;;;2.92;;
81223;SDS011;70698;44.402;18.522;2023-07-20T08:27:50;4.72;;;3.30;;
81223;SDS011;70698;44.402;18.522;2023-07-20T08:30:16;7.75;;;2.90;;
81223;SDS011;70698;44.402;18.522;2023-07-20T08:32:42;6.28;;;3.13;;
81223;SDS011;70698;44.402;18.522;2023-07-20T08:35:08;11.70;;;3.70;;
81223;SDS011;70698;44.402;18.522;2023-07-20T08:37:34;6.65;;;3.47;;
81223;SDS011;70698;44.402;18.522;2023-07-20T08:40:00;4.75;;;3.30;;
81223;SDS011;70698;44.402;18.522;2023-07-20T08:42:26;5.78;;;3.63;;
81223;SDS011;70698;44.402;18.522;2023-07-20T08:44:53;10.73;;;5.82;;
81223;SDS011;70698;44.402;18.522;2023-07-20T08:47:20;8.68;;;4.70;;
81223;SDS011;70698;44.402;18.522;2023-07-20T08:49:48;13.27;;;8.18;;
81223;SDS011;70698;44.402;18.522;2023-07-20T08:52:14;7.63;;;3.17;;
81223;SDS011;70698;44.402;18.522;2023-07-20T08:54:39;12.13;;;6.50;;
81223;SDS011;70698;44.402;18.522;2023-07-20T08:57:05;9.43;;;5.43;;
81223;SDS011;70698;44.402;18.522;2023-07-20T08:59:32;7.73;;;4.23;;
81223;SDS011;70698;44.402;18.522;2023-07-20T09:02:01;9.63;;;4.85;;
81223;SDS011;70698;44.402;18.522;2023-07-20T09:04:29;8.63;;;3.60;;
81223;SDS011;70698;44.402;18.522;2023-07-20T09:06:54;9.45;;;3.65;;
81223;SDS011;70698;44.402;18.522;2023-07-20T09:09:22;8.00;;;3.58;;
81223;SDS011;70698;44.402;18.522;2023-07-20T09:11:48;9.05;;;4.10;;
81223;SDS011;70698;44.402;18.522;2023-07-20T09:14:14;7.63;;;3.50;;
81223;SDS011;70698;44.402;18.522;2023-07-20T09:16:47;6.40;;;3.90;;
81223;SDS011;70698;44.402;18.522;2023-07-20T09:19:14;9.65;;;4.05;;
81223;SDS011;70698;44.402;18.522;2023-07-20T09:21:43;8.20;;;3.42;;
81223;SDS011;70698;44.402;18.522;2023-07-20T09:24:13;9.40;;;3.80;;
81223;SDS011;70698;44.402;18.522;2023-07-20T09:26:43;7.63;;;3.58;;
81223;SDS011;70698;44.402;18.522;2023-07-20T09:29:10;8.13;;;3.00;;
81223;SDS011;70698;44.402;18.522;2023-07-20T09:31:37;8.68;;;3.35;;
81223;SDS011;70698;44.402;18.522;2023-07-20T09:34:04;7.47;;;2.67;;
81223;SDS011;70698;44.402;18.522;2023-07-20T09:36:31;9.07;;;4.20;;
81223;SDS011;70698;44.402;18.522;2023-07-20T09:38:59;8.18;;;4.65;;
81223;SDS011;70698;44.402;18.522;2023-07-20T09:41:25;9.48;;;4.57;;
81223;SDS011;70698;44.402;18.522;2023-07-20T09:43:52;9.85;;;4.15;;
81223;SDS011;70698;44.402;18.522;2023-07-20T09:46:18;5.78;;;3.40;;
81223;SDS011;70698;44.402;18.522;2023-07-20T09:48:54;7.15;;;2.90;;
81223;SDS011;70698;44.402;18.522;2023-07-20T09:51:23;6.07;;;3.00;;
81223;SDS011;70698;44.402;18.522;2023-07-20T09:53:51;5.97;;;3.33;;
81223;SDS011;70698;44.402;18.522;2023-07-20T09:56:19;12.20;;;3.90;;
81223;SDS011;70698;44.402;18.522;2023-07-20T10:01:12;8.23;;;3.30;;
81223;SDS011;70698;44.402;18.522;2023-07-20T10:03:41;8.68;;;3.38;;
81223;SDS011;70698;44.402;18.522;2023-07-20T10:06:10;5.75;;;3.20;;
81223;SDS011;70698;44.402;18.522;2023-07-20T10:08:40;7.50;;;3.30;;
81223;SDS011;70698;44.402;18.522;2023-07-20T10:11:07;7.20;;;3.55;;
81223;SDS011;70698;44.402;18.522;2023-07-20T10:13:37;7.72;;;3.28;;
81223;SDS011;70698;44.402;18.522;2023-07-20T10:16:08;24.10;;;16.47;;
81223;SDS011;70698;44.402;18.522;2023-07-20T10:21:10;28.00;;;19.55;;
81223;SDS011;70698;44.402;18.522;2023-07-20T10:23:37;12.27;;;3.40;;
81223;SDS011;70698;44.402;18.522;2023-07-20T10:26:04;5.47;;;3.20;;
81223;SDS011;70698;44.402;18.522;2023-07-20T10:28:31;7.82;;;3.20;;
81223;SDS011;70698;44.402;18.522;2023-07-20T10:30:57;7.72;;;3.40;;
81223;SDS011;70698;44.402;18.522;2023-07-20T10:33:23;12.18;;;2.90;;
81223;SDS011;70698;44.402;18.522;2023-07-20T10:36:02;8.55;;;3.38;;
81223;SDS011;70698;44.402;18.522;2023-07-20T10:39:12;5.22;;;2.83;;
81223;SDS011;70698;44.402;18.522;2023-07-20T10:41:27;5.22;;;2.63;;
81223;SDS011;70698;44.402;18.522;2023-07-20T10:44:01;9.20;;;3.38;;
81223;SDS011;70698;44.402;18.522;2023-07-20T10:46:43;5.25;;;2.38;;
81223;SDS011;70698;44.402;18.522;2023-07-20T10:49:10;5.70;;;2.50;;
81223;SDS011;70698;44.402;18.522;2023-07-20T10:51:41;7.40;;;2.80;;
81223;SDS011;70698;44.402;18.522;2023-07-20T10:56:41;7.70;;;2.50;;
81223;SDS011;70698;44.402;18.522;2023-07-20T10:59:17;5.53;;;2.20;;
81223;SDS011;70698;44.402;18.522;2023-07-20T11:02:05;4.72;;;2.20;;
81223;SDS011;70698;44.402;18.522;2023-07-20T11:07:03;7.00;;;2.40;;
81223;SDS011;70698;44.402;18.522;2023-07-20T11:09:33;4.20;;;2.33;;
81223;SDS011;70698;44.402;18.522;2023-07-20T11:12:08;4.18;;;2.28;;
81223;SDS011;70698;44.402;18.522;2023-07-20T11:14:44;4.05;;;2.22;;
81223;SDS011;70698;44.402;18.522;2023-07-20T11:17:19;3.22;;;2.13;;
81223;SDS011;70698;44.402;18.522;2023-07-20T11:19:48;5.03;;;2.38;;
81223;SDS011;70698;44.402;18.522;2023-07-20T11:22:16;5.33;;;2.00;;
81223;SDS011;70698;44.402;18.522;2023-07-20T11:24:42;6.32;;;2.35;;
81223;SDS011;70698;44.402;18.522;2023-07-20T11:27:08;6.13;;;2.55;;
81223;SDS011;70698;44.402;18.522;2023-07-20T11:29:34;6.55;;;2.22;;
81223;SDS011;70698;44.402;18.522;2023-07-20T11:34:29;4.28;;;2.40;;
81223;SDS011;70698;44.402;18.522;2023-07-20T11:36:56;4.97;;;2.40;;
81223;SDS011;70698;44.402;18.522;2023-07-20T11:39:22;4.90;;;2.47;;
81223;SDS011;70698;44.402;18.522;2023-07-20T11:41:51;6.82;;;2.80;;
81223;SDS011;70698;44.402;18.522;2023-07-20T11:46:44;5.00;;;2.40;;
81223;SDS011;70698;44.402;18.522;2023-07-20T11:49:10;4.40;;;2.50;;
81223;SDS011;70698;44.402;18.522;2023-07-20T11:51:36;3.72;;;2.42;;
81223;SDS011;70698;44.402;18.522;2023-07-20T11:54:03;6.40;;;2.67;;
81223;SDS011;70698;44.402;18.522;2023-07-20T11:56:30;4.70;;;2.83;;
81223;SDS011;70698;44.402;18.522;2023-07-20T11:58:59;5.68;;;2.97;;
81223;SDS011;70698;44.402;18.522;2023-07-20T12:01:27;7.05;;;2.97;;
81223;SDS011;70698;44.402;18.522;2023-07-20T12:04:00;4.50;;;2.42;;
81223;SDS011;70698;44.402;18.522;2023-07-20T12:06:27;6.65;;;2.60;;
81223;SDS011;70698;44.402;18.522;2023-07-20T12:08:59;6.25;;;2.88;;
81223;SDS011;70698;44.402;18.522;2023-07-20T12:11:38;3.63;;;2.63;;
81223;SDS011;70698;44.402;18.522;2023-07-20T12:14:04;6.38;;;2.95;;
81223;SDS011;70698;44.402;18.522;2023-07-20T12:16:32;4.70;;;3.05;;
81223;SDS011;70698;44.402;18.522;2023-07-20T12:19:08;6.47;;;2.80;;
81223;SDS011;70698;44.402;18.522;2023-07-20T12:21:36;4.47;;;3.05;;
81223;SDS011;70698;44.402;18.522;2023-07-20T12:24:03;7.32;;;3.17;;
81223;SDS011;70698;44.402;18.522;2023-07-20T12:26:30;5.17;;;2.90;;
81223;SDS011;70698;44.402;18.522;2023-07-20T12:28:57;6.50;;;3.20;;
81223;SDS011;70698;44.402;18.522;2023-07-20T12:31:25;10.40;;;3.23;;
81223;SDS011;70698;44.402;18.522;2023-07-20T12:33:52;8.43;;;3.25;;
81223;SDS011;70698;44.402;18.522;2023-07-20T12:36:20;5.47;;;3.20;;
81223;SDS011;70698;44.402;18.522;2023-07-20T12:38:46;5.30;;;3.20;;
81223;SDS011;70698;44.402;18.522;2023-07-20T12:41:12;4.63;;;3.20;;
81223;SDS011;70698;44.402;18.522;2023-07-20T12:46:05;6.30;;;3.58;;
81223;SDS011;70698;44.402;18.522;2023-07-20T12:48:31;5.10;;;3.10;;
81223;SDS011;70698;44.402;18.522;2023-07-20T12:50:57;4.25;;;3.50;;
81223;SDS011;70698;44.402;18.522;2023-07-20T12:53:22;6.35;;;3.63;;
81223;SDS011;70698;44.402;18.522;2023-07-20T12:55:48;3.97;;;3.25;;
81223;SDS011;70698;44.402;18.522;2023-07-20T12:58:14;5.45;;;3.45;;
81223;SDS011;70698;44.402;18.522;2023-07-20T13:00:44;5.43;;;2.90;;
81223;SDS011;70698;44.402;18.522;2023-07-20T13:03:10;6.10;;;3.30;;
81223;SDS011;70698;44.402;18.522;2023-07-20T13:05:35;5.63;;;3.63;;
81223;SDS011;70698;44.402;18.522;2023-07-20T13:08:02;6.18;;;3.85;;
81223;SDS011;70698;44.402;18.522;2023-07-20T13:10:28;6.30;;;3.13;;
81223;SDS011;70698;44.402;18.522;2023-07-20T13:12:54;5.37;;;3.73;;
81223;SDS011;70698;44.402;18.522;2023-07-20T13:15:19;5.13;;;3.38;;
81223;SDS011;70698;44.402;18.522;2023-07-20T13:17:45;4.80;;;3.20;;
81223;SDS011;70698;44.402;18.522;2023-07-20T13:20:11;5.38;;;3.50;;
81223;SDS011;70698;44.402;18.522;2023-07-20T13:22:37;5.47;;;3.37;;
81223;SDS011;70698;44.402;18.522;2023-07-20T13:25:03;5.20;;;3.92;;
81223;SDS011;70698;44.402;18.522;2023-07-20T13:27:30;6.10;;;3.90;;
81223;SDS011;70698;44.402;18.522;2023-07-20T13:29:57;8.88;;;3.78;;
81223;SDS011;70698;44.402;18.522;2023-07-20T13:32:23;7.15;;;3.65;;
81223;SDS011;70698;44.402;18.522;2023-07-20T13:34:49;6.50;;;3.70;;
81223;SDS011;70698;44.402;18.522;2023-07-20T13:37:14;5.30;;;3.70;;
81223;SDS011;70698;44.402;18.522;2023-07-20T13:39:41;6.68;;;3.85;;
81223;SDS011;70698;44.402;18.522;2023-07-20T13:42:07;4.57;;;3.60;;
81223;SDS011;70698;44.402;18.522;2023-07-20T13:44:36;4.97;;;3.72;;
81223;SDS011;70698;44.402;18.522;2023-07-20T13:49:28;5.30;;;3.20;;
81223;SDS011;70698;44.402;18.522;2023-07-20T13:51:54;5.53;;;4.00;;
81223;SDS011;70698;44.402;18.522;2023-07-20T13:54:21;6.22;;;3.90;;
81223;SDS011;70698;44.402;18.522;2023-07-20T13:56:46;4.73;;;3.20;;
81223;SDS011;70698;44.402;18.522;2023-07-20T13:59:12;5.53;;;3.65;;
81223;SDS011;70698;44.402;18.522;2023-07-20T14:01:38;5.53;;;3.80;;
81223;SDS011;70698;44.402;18.522;2023-07-20T14:04:04;3.70;;;3.30;;
81223;SDS011;70698;44.402;18.522;2023-07-20T14:06:30;4.23;;;3.20;;
81223;SDS011;70698;44.402;18.522;2023-07-20T14:08:57;4.75;;;3.60;;
81223;SDS011;70698;44.402;18.522;2023-07-20T14:11:23;5.40;;;3.40;;
81223;SDS011;70698;44.402;18.522;2023-07-20T14:13:52;5.30;;;3.90;;
81223;SDS011;70698;44.402;18.522;2023-07-20T14:16:19;4.03;;;3.30;;
81223;SDS011;70698;44.402;18.522;2023-07-20T14:18:45;5.28;;;3.47;;
81223;SDS011;70698;44.402;18.522;2023-07-20T14:21:14;5.65;;;3.28;;
81223;SDS011;70698;44.402;18.522;2023-07-20T14:23:47;6.18;;;3.35;;
81223;SDS011;70698;44.402;18.522;2023-07-20T14:26:23;5.93;;;3.50;;
81223;SDS011;70698;44.402;18.522;2023-07-20T14:28:49;5.77;;;3.30;;
81223;SDS011;70698;44.402;18.522;2023-07-20T14:31:15;4.22;;;3.20;;
81223;SDS011;70698;44.402;18.522;2023-07-20T14:33:41;4.60;;;3.07;;
81223;SDS011;70698;44.402;18.522;2023-07-20T14:36:06;3.50;;;3.20;;
81223;SDS011;70698;44.402;18.522;2023-07-20T14:38:32;6.37;;;3.70;;
81223;SDS011;70698;44.402;18.522;2023-07-20T14:40:59;4.75;;;3.42;;
81223;SDS011;70698;44.402;18.522;2023-07-20T14:43:25;4.67;;;3.20;;
81223;SDS011;70698;44.402;18.522;2023-07-20T14:45:51;4.80;;;3.67;;
81223;SDS011;70698;44.402;18.522;2023-07-20T14:48:16;3.73;;;3.30;;
81223;SDS011;70698;44.402;18.522;2023-07-20T14:50:42;5.27;;;3.03;;
81223;SDS011;70698;44.402;18.522;2023-07-20T14:53:10;6.93;;;3.13;;
81223;SDS011;70698;44.402;18.522;2023-07-20T14:55:37;4.05;;;3.33;;
81223;SDS011;70698;44.402;18.522;2023-07-20T14:58:02;4.07;;;3.00;;
81223;SDS011;70698;44.402;18.522;2023-07-20T15:00:28;4.47;;;2.97;;
81223;SDS011;70698;44.402;18.522;2023-07-20T15:02:55;4.18;;;3.15;;